Mineral Point, Pennsylvania
Current Conditions -  °F | °C
As of 2:54 AM on Monday 24 Nov 2014 (Local Time) from KJST Reporting Station
Overcast Overcast  
Wind Chill: 50°   Ceiling: 500
Heat Index: 50°   Visibility: 10mi
Dew Point: 48°   Wind: 23mph
Humidity: 93%   Direction: 160°SSE
Pressure: 29.51"   Gusts: 31mph
Location:  40.38°N, 78.84°W
Report Text: KJST 240754Z AUTO 16020G27KT 10SM BKN005 OVC018 10/09 A2951 RMK AO2 PK WND 16027/0754 SLP992 T01000089
Loading
Personal Weather Stations






























Interactive Weather Map New forecast layout! Learn more

10-Day Weather Forecast

Advertisements
Track Severe Weather on mobile